createdAt,value
2023-05-25T14:42:28.196Z,39.87426758
2023-05-25T14:43:29.931Z,38.88549805
2023-05-25T14:44:30.746Z,40.22827148
2023-05-25T14:45:32.312Z,41.55273438
2023-05-25T14:46:33.233Z,41.9921875
2023-05-25T14:47:35.049Z,42.62695313
2023-05-25T14:48:35.939Z,43.53637695
2023-05-25T14:49:37.519Z,43.95751953
2023-05-25T14:50:39.342Z,44.35424805
2023-05-25T14:51:40.238Z,44.27490234
2023-05-25T14:53:11.681Z,44.57397461
2023-05-25T14:54:12.481Z,44.75097656
2023-05-25T14:55:13.706Z,44.37255859
2023-05-25T14:56:14.477Z,44.27490234
2023-05-25T14:57:15.968Z,44.76928711
2023-05-25T14:58:16.929Z,44.84863281
2023-05-25T14:59:18.472Z,44.54956055
2023-05-25T15:00:19.907Z,44.83032227
2023-05-25T15:01:21.940Z,44.13452148
2023-05-25T15:02:21.809Z,44.31152344
2023-05-25T15:03:24.068Z,43.79272461
2023-05-25T15:04:24.007Z,43.17626953
2023-05-25T15:05:25.447Z,42.56591797
2023-05-25T15:06:26.908Z,42.24853516
2023-05-25T15:07:27.802Z,42.24853516
2023-05-25T15:08:28.789Z,41.72973633
2023-05-25T15:09:29.733Z,41.72973633
2023-05-25T15:10:31.314Z,41.51611328
2023-05-25T15:11:32.111Z,41.61376953
2023-05-25T15:12:33.442Z,42.01049805
2023-05-25T15:13:35.005Z,41.90673828
2023-05-25T15:14:36.488Z,41.13769531
2023-05-25T15:15:37.472Z,42.14477539
2023-05-25T15:16:38.390Z,42.2668457
2023-05-25T15:17:39.892Z,42.98095703
2023-05-25T15:19:13.287Z,42.98095703
2023-05-25T15:20:43.721Z,42.74291992
2023-05-25T15:22:14.825Z,41.61376953
2023-05-25T15:23:15.633Z,40.20996094
2023-05-25T15:24:17.516Z,40.06958008
2023-05-25T15:25:24.454Z,39.26391602
2023-05-25T15:26:20.571Z,39.12353516
2023-05-25T15:27:21.870Z,38.10424805
2023-05-25T15:28:23.236Z,37.98828125
2023-05-25T15:29:25.101Z,37.16430664
2023-05-25T15:30:28.026Z,36.85302734
2023-05-25T15:31:29.357Z,35.93139648
2023-05-25T15:32:30.275Z,36.01074219
2023-05-25T15:33:48.332Z,35.11352539
2023-05-25T15:34:33.101Z,35.50415039
2023-05-25T15:35:34.200Z,35.62011719
2023-05-25T15:36:35.523Z,35.73608398
2023-05-25T15:37:37.536Z,35.87036133
2023-05-25T15:38:38.413Z,36.66992188
2023-05-25T15:39:39.199Z,36.68823242
2023-05-25T15:41:11.155Z,37.49389648
2023-05-25T15:42:12.453Z,38.0065918
2023-05-25T15:43:13.716Z,38.12255859
2023-05-25T15:44:15.437Z,38.33618164
2023-05-25T15:45:16.677Z,38.45214844
2023-05-25T15:46:17.398Z,38.45214844
2023-05-25T15:47:18.964Z,38.84887695
2023-05-25T15:48:19.877Z,39.14794922
2023-05-25T15:49:20.647Z,38.9465332
2023-05-25T15:50:22.482Z,38.22021484
2023-05-25T15:51:23.248Z,37.890625
2023-05-25T15:52:24.893Z,37.35961914
2023-05-25T15:53:25.722Z,36.24267578
2023-05-25T15:54:26.519Z,35.22949219
2023-05-25T15:55:27.247Z,35.54077148
2023-05-25T15:56:28.015Z,35.42480469
2023-05-25T15:57:28.792Z,34.91821289
2023-05-25T15:58:29.571Z,34.40551758
2023-05-25T15:59:31.342Z,34.70458984
2023-05-25T16:00:32.972Z,34.39331055
2023-05-25T16:01:33.744Z,33.96606445
2023-05-25T16:02:35.454Z,33.69140625
2023-05-25T16:03:36.319Z,34.61914063
2023-05-25T16:04:37.064Z,35.14404297
2023-05-25T16:05:37.918Z,36.16333008
2023-05-25T16:06:38.677Z,36.76757813
2023-05-25T16:07:40.426Z,36.96899414
2023-05-25T16:09:11.555Z,36.45629883
2023-05-25T16:10:12.284Z,36.53564453
2023-05-25T16:11:13.859Z,36.35864258
2023-05-25T16:12:14.544Z,36.26098633
2023-05-25T16:13:15.940Z,36.12670898
2023-05-25T16:14:17.426Z,35.83374023
2023-05-25T16:15:18.215Z,35.32714844
2023-05-25T16:16:19.074Z,34.99755859
2023-05-25T16:17:20.548Z,34.70458984
2023-05-25T16:18:21.188Z,34.58862305
2023-05-25T16:19:21.972Z,33.984375
2023-05-25T16:20:23.432Z,33.96606445
2023-05-25T16:21:24.125Z,34.16137695
2023-05-25T16:22:24.837Z,33.7890625
2023-05-25T16:23:26.414Z,33.59375
2023-05-25T16:24:27.314Z,34.1003418
2023-05-25T16:25:28.811Z,33.91723633
2023-05-25T16:26:29.551Z,34.71679688
2023-05-25T16:27:30.360Z,34.42382813
2023-05-25T16:28:31.029Z,35.04638672
2023-05-25T16:29:32.261Z,35.35766602
2023-05-25T16:30:33.919Z,35.96801758
2023-05-25T16:31:34.793Z,35.94970703
2023-05-25T16:32:35.443Z,36.24267578
2023-05-25T16:33:36.184Z,36.45629883
2023-05-25T16:34:37.014Z,36.18164063
2023-05-25T16:35:37.753Z,36.47460938
2023-05-25T16:36:38.504Z,37.31689453
2023-05-25T16:38:10.783Z,38.12255859
2023-05-25T16:39:11.497Z,38.33618164
2023-05-25T16:40:12.275Z,39.04418945
2023-05-25T16:41:13.913Z,39.36157227
2023-05-25T16:42:14.680Z,39.97192383
2023-05-25T16:43:15.375Z,40.19165039
2023-05-25T16:44:16.929Z,40.50292969
2023-05-25T16:45:18.442Z,40.72265625
2023-05-25T16:46:19.252Z,41.15600586
2023-05-25T16:47:21.472Z,42.16918945
2023-05-25T16:48:23.248Z,42.68188477
2023-05-25T16:49:22.946Z,43.07861328
2023-05-25T16:50:23.677Z,43.39599609
2023-05-25T16:51:24.423Z,43.91479492
2023-05-25T16:52:25.273Z,44.62890625
2023-05-25T16:53:25.988Z,45.02563477
2023-05-25T16:54:26.810Z,45.02563477
2023-05-25T16:55:27.613Z,45.05004883
2023-05-25T16:56:29.589Z,45.54443359
2023-05-25T16:57:31.003Z,45.46508789
2023-05-25T16:58:31.747Z,45.06835938
2023-05-25T16:59:32.503Z,45.46508789
2023-05-25T17:00:33.290Z,44.97070313
2023-05-25T17:01:34.884Z,45.38574219
2023-05-25T17:02:36.548Z,45.68481445
2023-05-25T17:03:37.291Z,46.10595703
2023-05-25T17:04:37.906Z,46.4050293
2023-05-25T17:05:39.070Z,46.82617188
2023-05-25T17:07:11.200Z,47.12524414
2023-05-25T17:08:12.968Z,47.44262695
2023-05-25T17:09:13.702Z,47.44262695
2023-05-25T17:10:14.520Z,47.76611328
2023-05-25T17:11:15.977Z,48.26049805
2023-05-25T17:12:17.471Z,48.36425781
2023-05-25T17:13:18.357Z,48.46191406
2023-05-25T17:14:19.134Z,48.65722656
2023-05-25T17:15:19.948Z,48.58398438
2023-05-25T17:16:20.804Z,48.68164063
2023-05-25T17:17:22.490Z,48.88305664
2023-05-25T17:18:23.161Z,49.20654297
2023-05-25T17:19:23.887Z,49.50561523
2023-05-25T17:20:24.783Z,49.8046875
2023-05-25T17:21:26.318Z,49.70092773
2023-05-25T17:22:27.982Z,49.70092773
2023-05-25T17:23:28.958Z,49.60327148
2023-05-25T17:24:29.840Z,49.8046875
2023-05-25T17:25:30.647Z,50.12817383
2023-05-25T17:26:31.354Z,50.32348633
2023-05-25T17:27:32.212Z,49.82910156
2023-05-25T17:28:32.998Z,50.04882813
2023-05-25T17:29:34.404Z,50.44555664
2023-05-25T17:30:35.243Z,50.67138672
2023-05-25T17:31:36.792Z,50.97045898
2023-05-25T17:32:38.482Z,51.59301758
2023-05-25T17:34:09.579Z,51.69677734
2023-05-25T17:35:10.280Z,52.09350586
2023-05-25T17:36:11.100Z,52.09350586
2023-05-25T17:37:11.834Z,52.11791992
2023-05-25T17:38:43.781Z,52.91748047
2023-05-25T17:40:14.977Z,53.2409668
2023-05-25T17:41:16.432Z,53.44238281
2023-05-25T17:42:17.228Z,53.66821289
2023-05-25T17:43:18.004Z,53.76586914
2023-05-25T17:44:19.524Z,54.16870117
2023-05-25T17:45:20.425Z,54.29077148
2023-05-25T17:46:21.271Z,54.39453125
2023-05-25T17:47:23.489Z,54.69360352
2023-05-25T17:48:24.332Z,54.69360352
2023-05-25T17:49:25.220Z,55.12084961
2023-05-25T17:50:26.142Z,55.01708984
2023-05-25T17:51:27.456Z,55.51757813
2023-05-25T17:52:28.196Z,55.64575195
2023-05-25T17:53:28.948Z,55.64575195
2023-05-25T17:54:29.678Z,56.04858398
2023-05-25T17:55:30.562Z,56.47583008
2023-05-25T17:56:31.467Z,56.47583008
2023-05-25T17:57:32.360Z,56.67114258
2023-05-25T17:58:33.229Z,56.87255859
2023-05-25T17:59:34.910Z,57.29980469
2023-05-25T18:00:35.844Z,57.29980469
2023-05-25T18:01:38.720Z,57.80029297
2023-05-25T18:03:10.659Z,57.80029297
2023-05-25T18:04:11.605Z,57.7331543
2023-05-25T18:05:12.369Z,57.83081055
2023-05-25T18:06:13.887Z,57.9284668
2023-05-25T18:07:14.603Z,58.12988281
2023-05-25T18:08:16.405Z,58.33129883
2023-05-25T18:09:17.291Z,58.66088867
2023-05-25T18:10:18.311Z,59.16137695
2023-05-25T18:11:20.052Z,59.0637207
2023-05-25T18:12:21.494Z,59.0637207
2023-05-25T18:13:22.314Z,59.0637207
2023-05-25T18:14:23.133Z,59.16137695
2023-05-25T18:15:24.905Z,59.2590332
2023-05-25T18:16:25.802Z,59.56420898
2023-05-25T18:17:27.499Z,59.46044922
2023-05-25T18:18:28.291Z,59.36279297
2023-05-25T18:19:29.071Z,59.69238281
2023-05-25T18:20:29.917Z,60.09521484
2023-05-25T18:21:31.511Z,60.19287109
2023-05-25T18:22:32.352Z,60.19287109
2023-05-25T18:23:34.053Z,60.39428711
2023-05-25T18:24:35.492Z,60.39428711
2023-05-25T18:25:36.298Z,60.49194336
2023-05-25T18:26:37.093Z,60.69335938
2023-05-25T18:28:08.910Z,60.49194336
2023-05-25T18:29:10.521Z,60.59570313
2023-05-25T18:30:11.425Z,60.59570313
2023-05-25T18:31:12.298Z,60.39428711
2023-05-25T18:32:13.983Z,60.39428711
2023-05-25T18:33:14.980Z,60.59570313
2023-05-25T18:34:16.490Z,60.69335938
2023-05-25T18:35:17.344Z,61.29760742
2023-05-25T18:36:18.130Z,60.59570313
2023-05-25T18:37:19.530Z,60.69335938
2023-05-25T18:38:20.429Z,60.59570313
2023-05-25T18:39:21.276Z,60.72387695
2023-05-25T18:40:22.253Z,60.42480469
2023-05-25T18:41:23.990Z,60.52246094
2023-05-25T18:42:25.532Z,60.52246094
2023-05-25T18:43:26.331Z,60.42480469
2023-05-25T18:44:27.208Z,60.62011719
2023-05-25T18:45:28.995Z,60.92529297
2023-05-25T18:46:29.931Z,61.22436523
2023-05-25T18:47:31.545Z,61.22436523
2023-05-25T18:48:32.330Z,61.15112305
2023-05-25T18:49:33.313Z,61.25488281
2023-05-25T18:50:34.248Z,61.25488281
2023-05-25T18:51:36.071Z,61.35253906
2023-05-25T18:52:36.926Z,61.65771484
2023-05-25T18:54:08.653Z,61.65771484
2023-05-25T18:55:09.609Z,61.85913086
2023-05-25T18:56:10.619Z,61.98730469
2023-05-25T18:57:11.597Z,62.08496094
2023-05-25T18:58:12.511Z,62.1887207
2023-05-25T18:59:14.491Z,62.39013672
2023-05-25T19:00:15.278Z,62.48779297
2023-05-25T19:01:16.204Z,62.39013672
2023-05-25T19:02:18.283Z,62.59155273
2023-05-25T19:03:20.236Z,62.48779297
2023-05-25T19:04:21.074Z,62.68920898
2023-05-25T19:05:22.344Z,62.890625
2023-05-25T19:06:23.566Z,63.09204102
2023-05-25T19:07:24.557Z,63.29345703
2023-05-25T19:08:25.489Z,63.39111328
2023-05-25T19:09:26.261Z,63.69628906
2023-05-25T19:10:27.306Z,63.69628906
2023-05-25T19:11:28.515Z,63.49487305
2023-05-25T19:12:30.130Z,63.69628906
2023-05-25T19:13:31.246Z,63.92822266
2023-05-25T19:14:32.200Z,63.92822266
2023-05-25T19:15:34.039Z,63.92822266
2023-05-25T19:16:34.974Z,63.92822266
2023-05-25T19:17:36.496Z,64.12963867
2023-05-25T19:19:08.429Z,63.92822266
2023-05-25T19:20:09.423Z,63.92822266
2023-05-25T19:21:10.370Z,63.82446289
2023-05-25T19:22:12.016Z,63.72680664
2023-05-25T19:23:14.003Z,63.92822266
2023-05-25T19:24:14.969Z,64.02587891
2023-05-25T19:25:15.949Z,64.22729492
2023-05-25T19:26:16.814Z,64.63012695
2023-05-25T19:27:18.527Z,64.83154297
2023-05-25T19:28:19.472Z,64.7277832
2023-05-25T19:29:21.144Z,64.42871094
2023-05-25T19:30:22.114Z,64.42871094
2023-05-25T19:31:22.950Z,64.52636719
2023-05-25T19:32:24.729Z,64.42871094
2023-05-25T19:33:26.533Z,64.42871094
2023-05-25T19:34:27.643Z,64.33105469
2023-05-25T19:35:28.822Z,64.52636719
2023-05-25T19:36:29.868Z,64.83154297
2023-05-25T19:37:31.471Z,64.92919922
2023-05-25T19:38:41.125Z,65.234375
2023-05-25T19:39:33.215Z,65.53344727
2023-05-25T19:40:34.130Z,65.33203125
2023-05-25T19:41:35.046Z,65.234375
2023-05-25T19:42:36.554Z,65.56396484
2023-05-25T19:44:07.695Z,65.46630859
2023-05-25T19:45:09.537Z,65.46630859
2023-05-25T19:46:10.635Z,65.56396484
2023-05-25T19:47:12.652Z,65.46630859
2023-05-25T19:48:13.933Z,65.46630859
2023-05-25T19:49:14.857Z,65.56396484
2023-05-25T19:50:15.822Z,65.76538086
2023-05-25T19:51:16.713Z,65.86914063
2023-05-25T19:52:18.595Z,65.66772461
2023-05-25T19:53:19.597Z,65.76538086
2023-05-25T19:54:20.493Z,65.76538086
2023-05-25T19:55:22.026Z,65.86914063
2023-05-25T19:56:22.932Z,65.96679688
2023-05-25T19:57:23.987Z,65.86914063
2023-05-25T19:58:25.831Z,65.79589844
2023-05-25T19:59:26.906Z,65.8996582
2023-05-25T20:00:27.779Z,66.10107422
2023-05-25T20:01:28.856Z,66.10107422
2023-05-25T20:02:30.632Z,66.30249023
2023-05-25T20:03:31.901Z,66.19873047
2023-05-25T20:04:33.541Z,66.30249023
2023-05-25T20:05:34.332Z,66.19873047
2023-05-25T20:06:35.296Z,66.19873047
2023-05-25T20:07:37.052Z,66.40014648
2023-05-25T20:09:08.651Z,66.10107422
2023-05-25T20:10:09.671Z,66.19873047
2023-05-25T20:11:10.520Z,66.19873047
2023-05-25T20:12:12.048Z,66.19873047
2023-05-25T20:13:13.570Z,66.50390625
2023-05-25T20:14:15.044Z,66.50390625
2023-05-25T20:15:16.153Z,66.50390625
2023-05-25T20:16:18.058Z,66.70532227
2023-05-25T20:17:18.954Z,67.00439453
2023-05-25T20:18:20.034Z,67.13867188
2023-05-25T20:19:22.215Z,67.23632813
2023-05-25T20:20:22.266Z,67.34008789
2023-05-25T20:21:23.198Z,67.34008789
2023-05-25T20:22:25.013Z,67.34008789
2023-05-25T20:23:25.904Z,67.34008789
2023-05-25T20:24:27.150Z,67.34008789
2023-05-25T20:25:28.130Z,67.43774414
2023-05-25T20:26:29.137Z,67.54150391
2023-05-25T20:27:31.066Z,67.54150391
2023-05-25T20:28:31.887Z,67.63916016
2023-05-25T20:29:32.745Z,67.54150391
2023-05-25T20:30:33.695Z,67.74291992
2023-05-25T20:31:34.845Z,67.84057617
2023-05-25T20:32:36.620Z,68.04199219
2023-05-25T20:34:08.504Z,68.17626953
2023-05-25T20:35:09.527Z,68.48144531
2023-05-25T20:36:10.484Z,68.57910156
2023-05-25T20:37:11.650Z,68.88427734
2023-05-25T20:38:13.916Z,68.98193359
2023-05-25T20:39:14.670Z,69.08569336
2023-05-25T20:40:15.540Z,69.18334961
2023-05-25T20:41:16.443Z,69.18334961
2023-05-25T20:42:18.078Z,68.98193359
2023-05-25T20:43:19.149Z,68.88427734
2023-05-25T20:44:20.485Z,68.98193359
2023-05-25T20:45:21.514Z,68.98193359
2023-05-25T20:46:23.046Z,68.98193359
2023-05-25T20:47:24.910Z,68.88427734
2023-05-25T20:48:26.563Z,68.75
2023-05-25T20:49:27.453Z,68.75
2023-05-25T20:50:28.303Z,68.84765625
2023-05-25T20:51:29.374Z,68.75
2023-05-25T20:52:31.031Z,68.64624023
2023-05-25T20:53:31.886Z,68.54858398
2023-05-25T20:54:33.540Z,68.64624023
2023-05-25T20:55:34.320Z,68.75
2023-05-25T20:56:35.504Z,68.75
2023-05-25T20:58:07.002Z,68.64624023
2023-05-25T20:59:08.580Z,68.64624023
2023-05-25T21:00:09.474Z,68.75
2023-05-25T21:01:11.122Z,68.54858398
2023-05-25T21:02:12.105Z,68.54858398
2023-05-25T21:03:14.219Z,68.44482422
2023-05-25T21:04:15.119Z,68.54858398
2023-05-25T21:05:16.577Z,68.44482422
2023-05-25T21:06:17.474Z,68.44482422
2023-05-25T21:07:19.620Z,68.54858398
2023-05-25T21:08:20.624Z,68.64624023
2023-05-25T21:09:21.490Z,68.75
2023-05-25T21:10:22.305Z,68.84765625
2023-05-25T21:11:23.864Z,68.95141602
2023-05-25T21:12:24.634Z,68.95141602
2023-05-25T21:13:26.483Z,68.95141602
2023-05-25T21:14:27.654Z,68.84765625
2023-05-25T21:15:29.096Z,68.75
2023-05-25T21:16:29.991Z,68.84765625
2023-05-25T21:17:31.486Z,68.75
2023-05-25T21:18:32.418Z,68.64624023
2023-05-25T21:19:34.096Z,68.84765625
2023-05-25T21:20:35.131Z,69.18334961
2023-05-25T21:22:06.791Z,69.28710938
2023-05-25T21:23:08.616Z,69.28710938
2023-05-25T21:24:09.735Z,69.38476563
2023-05-25T21:25:10.758Z,69.48852539
2023-05-25T21:26:11.600Z,69.48852539
2023-05-25T21:27:12.374Z,69.48852539
2023-05-25T21:28:14.038Z,69.48852539
2023-05-25T21:29:15.037Z,69.48852539
2023-05-25T21:30:16.021Z,69.48852539
2023-05-25T21:31:17.143Z,69.58618164
2023-05-25T21:32:18.549Z,69.48852539
2023-05-25T21:33:20.034Z,69.48852539
2023-05-25T21:34:21.077Z,69.68994141
2023-05-25T21:35:22.097Z,69.68994141
2023-05-25T21:36:23.103Z,69.58618164
2023-05-25T21:37:23.964Z,69.58618164
2023-05-25T21:38:25.443Z,69.48852539
2023-05-25T21:39:26.405Z,69.48852539
2023-05-25T21:40:27.291Z,69.38476563
2023-05-25T21:41:28.277Z,69.38476563
2023-05-25T21:42:29.122Z,69.38476563
2023-05-25T21:43:30.990Z,69.48852539
2023-05-25T21:44:31.809Z,69.58618164
2023-05-25T21:45:33.372Z,69.58618164
2023-05-25T21:46:35.560Z,69.58618164
2023-05-25T21:48:06.947Z,69.78759766
2023-05-25T21:49:07.741Z,69.98901367
2023-05-25T21:50:08.714Z,70.29418945
2023-05-25T21:51:09.668Z,70.29418945
2023-05-25T21:52:10.564Z,70.09277344
2023-05-25T21:53:12.698Z,70.29418945
2023-05-25T21:54:13.764Z,70.3918457
2023-05-25T21:55:14.804Z,70.49560547
2023-05-25T21:56:15.629Z,70.69702148
2023-05-25T21:57:17.038Z,70.69702148
2023-05-25T21:58:18.127Z,70.69702148
2023-05-25T21:59:19.600Z,70.72753906
2023-05-25T22:00:20.453Z,70.82519531
2023-05-25T22:01:21.372Z,70.72753906
2023-05-25T22:02:23.239Z,70.72753906
2023-05-25T22:03:24.669Z,70.72753906
2023-05-25T22:04:25.547Z,71.03271484
2023-05-25T22:05:26.580Z,71.13037109
2023-05-25T22:06:27.461Z,71.13037109
2023-05-25T22:07:28.459Z,71.23413086
2023-05-25T22:08:29.597Z,70.82519531
2023-05-25T22:09:30.797Z,70.72753906
2023-05-25T22:10:31.788Z,70.82519531
2023-05-25T22:11:32.672Z,70.92895508
2023-05-25T22:12:33.698Z,70.86181641
2023-05-25T22:14:06.022Z,70.86181641
2023-05-25T22:15:06.976Z,70.96557617
2023-05-25T22:16:08.669Z,71.19750977
2023-05-25T22:17:10.630Z,71.6003418
2023-05-25T22:18:11.597Z,71.6003418
2023-05-25T22:19:12.462Z,71.70410156
2023-05-25T22:20:13.942Z,71.90551758
2023-05-25T22:21:14.888Z,71.90551758
2023-05-25T22:22:16.610Z,72.00317383
2023-05-25T22:23:18.018Z,72.00317383
2023-05-25T22:24:18.861Z,71.90551758
2023-05-25T22:25:19.813Z,71.80175781
2023-05-25T22:26:20.746Z,71.80175781
2023-05-25T22:27:21.665Z,71.80175781
2023-05-25T22:28:22.512Z,71.6003418
2023-05-25T22:29:23.897Z,71.70410156
2023-05-25T22:30:25.027Z,71.70410156
2023-05-25T22:31:26.043Z,71.70410156
2023-05-25T22:32:27.201Z,71.80175781
2023-05-25T22:33:30.028Z,71.90551758
2023-05-25T22:34:30.990Z,71.90551758
2023-05-25T22:35:31.944Z,71.90551758
2023-05-25T22:36:33.040Z,71.70410156
2023-05-25T22:37:34.076Z,72.00317383
2023-05-25T22:39:06.054Z,72.30834961
2023-05-25T22:40:06.984Z,72.20458984
2023-05-25T22:41:07.855Z,72.00317383
2023-05-25T22:42:08.789Z,72.10693359
2023-05-25T22:43:10.621Z,72.30834961
2023-05-25T22:44:12.052Z,72.50976563
2023-05-25T22:45:13.588Z,72.50976563
2023-05-25T22:46:14.397Z,72.60742188
2023-05-25T22:47:16.096Z,72.60742188
2023-05-25T22:48:18.067Z,72.60742188
2023-05-25T22:49:19.066Z,72.50976563
2023-05-25T22:50:20.030Z,72.71118164
2023-05-25T22:51:20.952Z,72.71118164
2023-05-25T22:52:21.880Z,72.60742188
2023-05-25T22:53:23.570Z,72.71118164
2023-05-25T22:54:24.465Z,72.71118164
2023-05-25T22:55:25.438Z,72.71118164
2023-05-25T22:56:26.351Z,72.80883789
2023-05-25T22:57:27.171Z,72.71118164
2023-05-25T22:58:28.148Z,72.60742188
2023-05-25T22:59:30.680Z,72.60742188
2023-05-25T23:00:31.725Z,72.71118164
2023-05-25T23:01:32.762Z,72.91259766
2023-05-25T23:02:33.587Z,72.40600586
2023-05-25T23:04:06.264Z,72.40600586
2023-05-25T23:05:07.110Z,72.50976563
2023-05-25T23:06:08.058Z,72.60742188
2023-05-25T23:07:08.983Z,72.50976563
2023-05-25T23:08:10.025Z,72.40600586
2023-05-25T23:09:10.987Z,72.40600586
2023-05-25T23:10:11.951Z,72.50976563
2023-05-25T23:11:43.756Z,72.60742188
2023-05-25T23:13:16.023Z,72.5402832
2023-05-25T23:14:17.569Z,72.5402832
2023-05-25T23:15:18.625Z,72.64404297
2023-05-25T23:16:19.588Z,72.64404297
2023-05-25T23:17:21.643Z,72.64404297
2023-05-25T23:18:22.495Z,72.64404297
2023-05-25T23:19:23.596Z,72.64404297
2023-05-25T23:20:24.579Z,72.5402832
2023-05-25T23:21:25.546Z,72.33886719
2023-05-25T23:22:26.567Z,72.44262695
2023-05-25T23:23:28.110Z,72.24121094
2023-05-25T23:24:29.970Z,72.33886719
2023-05-25T23:25:30.823Z,72.5402832
2023-05-25T23:26:31.769Z,72.64404297
2023-05-25T23:27:33.569Z,72.97973633
2023-05-25T23:29:06.120Z,73.18115234
2023-05-25T23:30:06.993Z,72.88208008
2023-05-25T23:31:07.774Z,73.08349609
2023-05-25T23:32:08.729Z,73.28491211
2023-05-25T23:33:10.694Z,73.48632813
2023-05-25T23:34:12.069Z,73.28491211
2023-05-25T23:35:12.956Z,73.28491211
2023-05-25T23:36:14.010Z,73.38256836
2023-05-25T23:37:15.653Z,73.38256836
2023-05-25T23:38:16.650Z,73.48632813
2023-05-25T23:39:17.708Z,73.58398438
2023-05-25T23:40:18.693Z,73.68774414
2023-05-25T23:41:19.506Z,73.79150391
2023-05-25T23:42:20.357Z,73.79150391
2023-05-25T23:43:21.269Z,73.68774414
2023-05-25T23:44:23.081Z,73.79150391
2023-05-25T23:45:24.075Z,73.88916016
2023-05-25T23:46:25.198Z,73.68774414
2023-05-25T23:47:26.572Z,73.79150391
2023-05-25T23:48:27.464Z,74.12719727
2023-05-25T23:49:29.109Z,74.0234375
2023-05-25T23:50:30.111Z,73.79150391
2023-05-25T23:51:31.092Z,73.68774414
2023-05-25T23:52:31.984Z,73.68774414
2023-05-25T23:53:32.822Z,73.82202148
2023-05-25T23:55:05.221Z,73.58398438
2023-05-25T23:56:06.239Z,73.41918945
2023-05-25T23:57:07.185Z,73.52294922
2023-05-25T23:58:08.178Z,73.62060547
2023-05-25T23:59:09.574Z,73.62060547
